KBAX

Huron County Memorial Airport

Bad Axe, Michigan, USA
METAR KBAX 200635Z AUTO 00000KT 7SM OVC004 02/02 A2991 RMK AO2 T00220022
Observed Flight Rules
Feb-20 @ 06:35 UTC (34 minutes ago) Instrument Flight Rules
Wind Visibility Clouds
Calm 7 miles
  • Overcast at 400' AGL
Temperatures Readings
Current 2°C / 36°F
Dewpoint 2°C / 36°F
Humidity 100%
Altimeter 29.91" Hg
Pressure 1013 hPa
Elevation 234
METAR KBAX 200635Z AUTO 00000KT 7SM OVC004 02/02 A2991 RMK AO2 T00220022
Observed Flight Rules
Feb-20 @ 06:35 UTC
(34 minutes ago)
LIFR
Wind Visibility
Calm 7 miles
Clouds
  • Overcast at 400' AGL
Temperature Dewpoint
2°C / 36°F 2°C / 36°F
Humidity Altimeter Pressure
100% 29.91" Hg 1013 hPa